createdAt,value
2022-10-18T00:02:00.314Z,98134.00
2022-10-18T00:04:03.017Z,98135.88
2022-10-18T00:06:06.441Z,98146.47
2022-10-18T00:08:09.007Z,98141.13
2022-10-18T00:10:11.733Z,98133.41
2022-10-18T00:12:14.301Z,98135.22
2022-10-18T00:14:16.911Z,98139.69
2022-10-18T00:16:20.840Z,98136.09
2022-10-18T00:18:24.175Z,98135.16
2022-10-18T00:20:26.788Z,98148.34
2022-10-18T00:22:29.630Z,98138.44
2022-10-18T00:24:32.432Z,98140.16
2022-10-18T00:26:35.065Z,98140.94
2022-10-18T00:28:39.072Z,98143.34
2022-10-18T00:30:41.777Z,98134.84
2022-10-18T00:32:45.747Z,98140.22
2022-10-18T00:34:48.556Z,98141.06
2022-10-18T00:36:51.286Z,98142.84
2022-10-18T00:38:54.542Z,98139.31
2022-10-18T00:40:57.140Z,98139.31
2022-10-18T00:42:59.853Z,98141.66
2022-10-18T00:45:21.996Z,98138.50
2022-10-18T00:47:24.598Z,98150.13
2022-10-18T00:49:31.946Z,98148.53
2022-10-18T00:51:39.356Z,98152.94
2022-10-18T00:53:42.107Z,98156.34
2022-10-18T00:55:45.407Z,98143.34
2022-10-18T00:57:48.503Z,98141.00
2022-10-18T00:59:51.564Z,98154.47
2022-10-18T01:01:54.226Z,98148.66
2022-10-18T01:03:58.303Z,98150.53
2022-10-18T01:06:02.368Z,98151.47
2022-10-18T01:08:27.306Z,98149.75
2022-10-18T01:10:37.204Z,98140.03
2022-10-18T01:12:49.392Z,98139.97
2022-10-18T01:15:00.320Z,98135.66
2022-10-18T01:17:09.295Z,98135.53
2022-10-18T01:19:44.762Z,98141.69
2022-10-18T01:21:55.320Z,98138.28
2022-10-18T01:24:26.602Z,98140.91
2022-10-18T01:26:42.874Z,98139.06
2022-10-18T01:28:56.373Z,98135.47
2022-10-18T01:31:02.950Z,98141.44
2022-10-18T01:33:13.819Z,98146.63
2022-10-18T01:35:19.932Z,98147.06
2022-10-18T01:37:24.166Z,98135.75
2022-10-18T01:39:30.763Z,98133.34
2022-10-18T01:41:36.358Z,98135.88
2022-10-18T01:43:41.639Z,98132.41
2022-10-18T01:45:44.237Z,98131.56
2022-10-18T01:47:49.377Z,98133.34
2022-10-18T01:49:59.343Z,98133.19
2022-10-18T01:52:02.027Z,98126.31
2022-10-18T01:54:05.163Z,98130.66
2022-10-18T01:56:19.656Z,98122.84
2022-10-18T01:58:29.534Z,98122.03
2022-10-18T02:00:39.119Z,98121.97
2022-10-18T02:02:47.955Z,98123.22
2022-10-18T02:04:58.262Z,98118.03
2022-10-18T02:07:07.239Z,98118.31
2022-10-18T02:09:14.101Z,98114.03
2022-10-18T02:11:19.343Z,98115.81
2022-10-18T02:13:23.722Z,98111.41
2022-10-18T02:15:31.989Z,98114.69
2022-10-18T02:17:35.012Z,98115.41
2022-10-18T02:19:41.313Z,98123.22
2022-10-18T02:21:48.258Z,98116.28
2022-10-18T02:23:51.605Z,98111.81
2022-10-18T02:25:54.767Z,98113.59
2022-10-18T02:27:57.508Z,98110.94
2022-10-18T02:30:00.306Z,98115.34
2022-10-18T02:32:07.680Z,98114.28
2022-10-18T02:34:17.801Z,98111.06
2022-10-18T02:36:24.948Z,98113.97
2022-10-18T02:38:30.816Z,98114.16
2022-10-18T02:40:33.608Z,98115.94
2022-10-18T02:42:37.373Z,98115.88
2022-10-18T02:44:40.494Z,98117.78
2022-10-18T02:46:43.648Z,98108.59
2022-10-18T02:48:46.294Z,98108.44
2022-10-18T02:50:48.915Z,98107.63
2022-10-18T02:52:51.464Z,98114.56
2022-10-18T02:54:55.443Z,98116.94
2022-10-18T02:56:58.104Z,98125.41
2022-10-18T02:59:00.742Z,98118.03
2022-10-18T03:01:03.361Z,98125.19
2022-10-18T03:03:05.987Z,98121.34
2022-10-18T03:05:09.073Z,98122.44
2022-10-18T03:07:11.667Z,98119.09
2022-10-18T03:09:14.333Z,98125.84
2022-10-18T03:11:18.295Z,98127.03
2022-10-18T03:13:20.960Z,98119.34
2022-10-18T03:15:23.595Z,98118.66
2022-10-18T03:17:26.228Z,98114.41
2022-10-18T03:19:28.829Z,98124.94
2022-10-18T03:21:31.431Z,98124.00
2022-10-18T03:23:34.384Z,98118.84
2022-10-18T03:25:36.995Z,98119.84
2022-10-18T03:27:40.948Z,98112.72
2022-10-18T03:29:43.547Z,98123.22
2022-10-18T03:31:46.123Z,98117.97
2022-10-18T03:33:48.936Z,98114.53
2022-10-18T03:35:51.508Z,98116.22
2022-10-18T03:37:54.111Z,98110.09
2022-10-18T03:39:56.647Z,98112.72
2022-10-18T03:41:59.228Z,98117.69
2022-10-18T03:44:03.249Z,98121.28
2022-10-18T03:46:06.204Z,98127.47
2022-10-18T03:48:08.794Z,98119.03
2022-10-18T03:50:11.422Z,98122.22
2022-10-18T03:52:14.103Z,98127.34
2022-10-18T03:54:16.688Z,98121.44
2022-10-18T03:56:19.225Z,98119.03
2022-10-18T03:58:23.054Z,98113.47
2022-10-18T04:00:27.060Z,98118.81
2022-10-18T04:02:29.832Z,98110.16
2022-10-18T04:04:32.601Z,98113.59
2022-10-18T04:06:35.257Z,98110.94
2022-10-18T04:08:37.843Z,98113.47
2022-10-18T04:10:40.807Z,98115.06
2022-10-18T04:12:43.368Z,98110.47
2022-10-18T04:14:45.962Z,98106.28
2022-10-18T04:16:49.969Z,98108.97
2022-10-18T04:18:52.577Z,98111.66
2022-10-18T04:20:55.176Z,98106.41
2022-10-18T04:22:58.241Z,98105.53
2022-10-18T04:25:01.233Z,98110.84
2022-10-18T04:27:03.872Z,98107.28
2022-10-18T04:29:06.800Z,98105.53
2022-10-18T04:31:10.147Z,98111.66
2022-10-18T04:33:14.081Z,98114.28
2022-10-18T04:35:16.706Z,98116.91
2022-10-18T04:37:19.438Z,98106.41
2022-10-18T04:39:22.152Z,98112.66
2022-10-18T04:41:24.792Z,98119.66
2022-10-18T04:43:27.382Z,98117.97
2022-10-18T04:45:29.986Z,98123.38
2022-10-18T04:47:32.900Z,98124.47
2022-10-18T04:49:37.137Z,98116.59
2022-10-18T04:51:39.726Z,98118.44
2022-10-18T04:53:42.294Z,98121.91
2022-10-18T04:55:46.061Z,98119.22
2022-10-18T04:57:48.729Z,98116.59
2022-10-18T04:59:51.292Z,98128.69
2022-10-18T05:01:54.008Z,98123.50
2022-10-18T05:03:56.912Z,98124.41
2022-10-18T05:06:02.727Z,98123.56
2022-10-18T05:08:07.973Z,98123.63
2022-10-18T05:10:10.929Z,98122.63
2022-10-18T05:12:13.494Z,98132.28
2022-10-18T05:14:16.087Z,98135.75
2022-10-18T05:16:18.791Z,98127.88
2022-10-18T05:18:21.653Z,98129.72
2022-10-18T05:20:24.287Z,98129.72
2022-10-18T05:22:28.587Z,98129.66
2022-10-18T05:24:31.341Z,98123.50
2022-10-18T05:26:33.863Z,98127.00
2022-10-18T05:28:40.182Z,98130.50
2022-10-18T05:30:43.352Z,98129.59
2022-10-18T05:32:45.929Z,98133.94
2022-10-18T05:34:48.579Z,98139.19
2022-10-18T05:36:51.182Z,98131.44
2022-10-18T05:38:56.296Z,98125.25
2022-10-18T05:40:59.607Z,98128.94
2022-10-18T05:43:02.283Z,98120.22
2022-10-18T05:45:05.435Z,98123.63
2022-10-18T05:47:08.018Z,98121.84
2022-10-18T05:49:12.422Z,98116.66
2022-10-18T05:51:15.180Z,98116.91
2022-10-18T05:53:35.708Z,98113.56
2022-10-18T05:55:40.956Z,98120.63
2022-10-18T05:57:43.552Z,98122.41
2022-10-18T05:59:46.191Z,98139.88
2022-10-18T06:01:48.756Z,98141.56
2022-10-18T06:03:51.515Z,98141.63
2022-10-18T06:05:54.143Z,98136.44
2022-10-18T06:07:57.341Z,98135.72
2022-10-18T06:09:59.899Z,98134.94
2022-10-18T06:12:04.020Z,98135.78
2022-10-18T06:14:08.609Z,98136.69
2022-10-18T06:16:11.815Z,98130.66
2022-10-18T06:18:14.433Z,98142.00
2022-10-18T06:20:17.247Z,98143.00
2022-10-18T06:22:19.898Z,98143.81
2022-10-18T06:24:22.777Z,98149.13
2022-10-18T06:26:26.091Z,98150.94
2022-10-18T06:28:30.858Z,98142.19
2022-10-18T06:30:34.269Z,98145.72
2022-10-18T06:32:36.876Z,98149.19
2022-10-18T06:34:39.463Z,98149.13
2022-10-18T06:36:42.056Z,98151.53
2022-10-18T06:38:44.970Z,98151.59
2022-10-18T06:40:49.037Z,98142.84
2022-10-18T06:43:00.520Z,98152.56
2022-10-18T06:45:15.912Z,98152.38
2022-10-18T06:47:18.524Z,98148.81
2022-10-18T06:49:21.179Z,98140.84
2022-10-18T06:51:23.733Z,98150.31
2022-10-18T06:53:27.456Z,98147.44
2022-10-18T06:55:31.155Z,98150.66
2022-10-18T06:57:33.690Z,98152.19
2022-10-18T06:59:36.392Z,98153.72
2022-10-18T07:01:40.401Z,98153.44
2022-10-18T07:03:43.536Z,98157.50
2022-10-18T07:05:46.107Z,98166.91
2022-10-18T07:07:51.753Z,98163.94
2022-10-18T07:09:58.193Z,98166.47
2022-10-18T07:12:00.745Z,98168.09
2022-10-18T07:14:04.893Z,98163.63
2022-10-18T07:16:11.539Z,98162.63
2022-10-18T07:18:18.121Z,98159.00
2022-10-18T07:20:20.718Z,98156.31
2022-10-18T07:22:27.010Z,98158.88
2022-10-18T07:26:37.072Z,98144.63
2022-10-18T07:28:39.958Z,98152.34
2022-10-18T07:30:42.783Z,98156.63
2022-10-18T07:32:45.869Z,98164.38
2022-10-18T07:34:50.221Z,98154.44
2022-10-18T07:36:52.932Z,98149.13
2022-10-18T07:38:56.455Z,98156.03
2022-10-18T07:41:00.605Z,98151.47
2022-10-18T07:43:06.216Z,98159.38
2022-10-18T07:45:10.452Z,98160.88
2022-10-18T07:47:13.475Z,98154.69
2022-10-18T07:49:17.193Z,98155.47
2022-10-18T07:51:22.674Z,98152.69
2022-10-18T07:53:25.848Z,98155.97
2022-10-18T07:55:28.928Z,98158.47
2022-10-18T07:57:31.878Z,98160.13
2022-10-18T07:59:35.572Z,98161.00
2022-10-18T08:01:38.319Z,98158.13
2022-10-18T08:03:42.044Z,98151.03
2022-10-18T08:05:44.628Z,98150.06
2022-10-18T08:07:48.614Z,98160.34
2022-10-18T08:09:51.269Z,98165.47
2022-10-18T08:11:53.821Z,98156.59
2022-10-18T08:13:56.408Z,98164.41
2022-10-18T08:16:01.375Z,98160.75
2022-10-18T08:18:04.158Z,98172.78
2022-10-18T08:20:12.362Z,98170.00
2022-10-18T08:22:24.685Z,98174.28
2022-10-18T08:24:28.674Z,98174.13
2022-10-18T08:26:31.259Z,98174.91
2022-10-18T08:28:36.638Z,98177.38
2022-10-18T08:30:39.513Z,98175.53
2022-10-18T08:32:42.057Z,98180.88
2022-10-18T08:34:44.724Z,98181.44
2022-10-18T08:36:48.011Z,98184.84
2022-10-18T08:38:51.085Z,98186.19
2022-10-18T08:40:55.606Z,98188.13
2022-10-18T08:43:04.452Z,98186.34
2022-10-18T08:45:17.884Z,98193.31
2022-10-18T08:47:35.692Z,98187.84
2022-10-18T08:49:47.033Z,98189.22
2022-10-18T08:51:52.210Z,98188.47
2022-10-18T08:54:02.508Z,98181.47
2022-10-18T08:56:14.727Z,98179.63
2022-10-18T08:58:20.833Z,98185.84
2022-10-18T09:00:25.958Z,98185.06
2022-10-18T09:02:49.662Z,98179.94
2022-10-18T09:04:59.508Z,98186.13
2022-10-18T09:07:20.260Z,98182.41
2022-10-18T09:09:36.521Z,98175.31
2022-10-18T09:11:53.010Z,98169.88
2022-10-18T09:14:29.012Z,98170.44
2022-10-18T09:16:41.544Z,98174.19
2022-10-18T09:18:59.721Z,98172.22
2022-10-18T09:21:09.792Z,98176.25
2022-10-18T09:23:20.208Z,98176.44
2022-10-18T09:25:25.113Z,98177.31
2022-10-18T09:27:38.786Z,98176.97
2022-10-18T09:29:57.852Z,98176.34
2022-10-18T09:32:08.396Z,98180.81
2022-10-18T09:34:18.195Z,98184.22
2022-10-18T09:36:23.793Z,98183.19
2022-10-18T09:38:32.436Z,98180.47
2022-10-18T09:40:39.931Z,98170.69
2022-10-18T09:42:52.309Z,98175.88
2022-10-18T09:44:59.733Z,98184.50
2022-10-18T09:47:05.177Z,98186.22
2022-10-18T09:49:16.466Z,98193.97
2022-10-18T09:51:22.595Z,98191.94
2022-10-18T09:53:35.216Z,98195.25
2022-10-18T09:55:43.410Z,98192.28
2022-10-18T09:58:44.574Z,98192.97
2022-10-18T10:04:33.141Z,98182.97
2022-10-18T10:07:19.415Z,98183.59
2022-10-18T10:09:29.318Z,98191.34
2022-10-18T10:11:35.250Z,98185.03
2022-10-18T10:13:37.944Z,98190.69
2022-10-18T10:15:42.574Z,98191.59
2022-10-18T10:17:54.512Z,98198.69
2022-10-18T10:20:00.370Z,98193.41
2022-10-18T10:26:34.473Z,98203.63
2022-10-18T10:30:29.743Z,98202.69
2022-10-18T10:32:43.106Z,98197.34
2022-10-18T10:34:45.975Z,98190.72
2022-10-18T10:36:50.200Z,98188.00
2022-10-18T10:39:05.791Z,98192.34
2022-10-18T10:41:20.502Z,98197.53
2022-10-18T10:43:42.547Z,98200.94
2022-10-18T10:45:58.528Z,98203.25
2022-10-18T10:48:20.780Z,98201.63
2022-10-18T10:50:26.734Z,98199.84
2022-10-18T10:52:31.536Z,98198.91
2022-10-18T10:54:51.222Z,98193.47
2022-10-18T10:56:59.130Z,98201.81
2022-10-18T10:59:10.936Z,98189.13
2022-10-18T11:01:27.232Z,98185.00
2022-10-18T11:03:31.811Z,98189.94
2022-10-18T11:05:44.211Z,98185.84
2022-10-18T11:07:47.904Z,98188.13
2022-10-18T11:09:56.972Z,98186.16
2022-10-18T11:12:11.301Z,98188.53
2022-10-18T11:14:26.586Z,98188.69
2022-10-18T11:16:37.551Z,98176.81
2022-10-18T11:18:43.841Z,98169.00
2022-10-18T11:20:50.251Z,98179.25
2022-10-18T11:23:01.133Z,98172.72
2022-10-18T11:25:05.038Z,98172.28
2022-10-18T11:27:15.944Z,98166.81
2022-10-18T11:29:34.824Z,98174.59
2022-10-18T11:31:46.105Z,98169.28
2022-10-18T11:34:18.061Z,98169.22
2022-10-18T11:36:27.629Z,98153.47
2022-10-18T11:38:35.254Z,98165.44
2022-10-18T11:40:51.870Z,98149.13
2022-10-18T11:43:03.887Z,98150.13
2022-10-18T11:45:20.384Z,98146.38
2022-10-18T11:47:32.210Z,98147.66
2022-10-18T11:50:02.732Z,98151.78
2022-10-18T11:52:12.685Z,98157.81
2022-10-18T11:54:36.600Z,98150.78
2022-10-18T11:56:47.749Z,98153.03
2022-10-18T11:59:03.385Z,98153.13
2022-10-18T12:01:18.186Z,98157.41
2022-10-18T12:03:34.826Z,98150.97
2022-10-18T12:05:40.527Z,98151.16
2022-10-18T12:07:51.156Z,98148.25
2022-10-18T12:09:56.265Z,98148.25
2022-10-18T12:12:03.794Z,98142.38
2022-10-18T12:14:14.732Z,98139.38
2022-10-18T12:16:38.892Z,98135.69
2022-10-18T12:18:54.993Z,98138.63
2022-10-18T12:21:00.112Z,98137.75
2022-10-18T12:23:06.762Z,98139.19
2022-10-18T12:25:14.829Z,98134.56
2022-10-18T12:27:18.505Z,98131.25
2022-10-18T12:29:28.552Z,98134.25
2022-10-18T12:31:36.910Z,98132.72
2022-10-18T12:33:43.187Z,98134.81
2022-10-18T12:35:58.605Z,98129.34
2022-10-18T12:38:16.707Z,98125.94
2022-10-18T12:40:24.591Z,98128.19
2022-10-18T12:42:29.700Z,98129.16
2022-10-18T12:44:33.959Z,98123.88
2022-10-18T12:46:47.977Z,98123.22
2022-10-18T12:49:03.888Z,98119.25
2022-10-18T12:51:15.434Z,98120.34
2022-10-18T12:53:21.191Z,98121.03
2022-10-18T12:55:36.733Z,98112.78
2022-10-18T12:58:02.649Z,98112.22
2022-10-18T13:00:06.092Z,98107.47
2022-10-18T13:02:29.812Z,98106.63
2022-10-18T13:04:38.234Z,98112.63
2022-10-18T13:07:20.643Z,98102.91
2022-10-18T13:09:23.247Z,98106.31
2022-10-18T13:11:33.191Z,98121.94
2022-10-18T13:13:46.227Z,98111.78
2022-10-18T13:15:56.519Z,98108.19
2022-10-18T13:18:06.331Z,98112.84
2022-10-18T13:20:25.946Z,98114.66
2022-10-18T13:22:53.966Z,98106.91
2022-10-18T13:25:04.190Z,98109.13
2022-10-18T13:27:36.902Z,98112.72
2022-10-18T13:29:56.013Z,98112.50
2022-10-18T13:32:04.010Z,98116.63
2022-10-18T13:34:26.677Z,98116.28
2022-10-18T13:36:33.739Z,98118.69
2022-10-18T13:38:48.384Z,98114.00
2022-10-18T13:41:02.425Z,98115.25
2022-10-18T13:43:38.210Z,98120.66
2022-10-18T13:45:53.960Z,98120.31
2022-10-18T13:47:56.649Z,98116.38
2022-10-18T13:50:18.088Z,98112.41
2022-10-18T13:52:30.326Z,98119.81
2022-10-18T13:54:55.269Z,98121.69
2022-10-18T13:57:11.948Z,98127.31
2022-10-18T13:59:38.183Z,98124.44
2022-10-18T14:01:53.326Z,98121.91
2022-10-18T14:04:32.700Z,98123.59
2022-10-18T14:06:37.474Z,98123.81
2022-10-18T14:08:45.111Z,98125.53
2022-10-18T14:11:02.463Z,98129.66
2022-10-18T14:13:07.676Z,98127.09
2022-10-18T14:15:18.369Z,98140.56
2022-10-18T14:17:29.461Z,98131.09
2022-10-18T14:19:39.181Z,98137.56
2022-10-18T14:21:48.775Z,98141.44
2022-10-18T14:23:52.011Z,98134.63
2022-10-18T14:26:06.573Z,98137.47
2022-10-18T14:28:14.008Z,98139.38
2022-10-18T14:30:20.093Z,98142.97
2022-10-18T14:32:28.110Z,98145.78
2022-10-18T14:34:31.212Z,98146.72
2022-10-18T14:36:40.843Z,98146.72
2022-10-18T14:38:51.290Z,98148.44
2022-10-18T14:41:06.135Z,98150.22
2022-10-18T14:43:13.146Z,98145.84
2022-10-18T14:45:20.286Z,98154.75
2022-10-18T14:47:25.456Z,98148.59
2022-10-18T14:49:28.959Z,98148.59
2022-10-18T14:51:34.954Z,98153.91
2022-10-18T14:53:39.869Z,98151.94
2022-10-18T14:55:44.115Z,98147.41
2022-10-18T14:57:48.163Z,98147.50
2022-10-18T14:59:55.617Z,98152.97
2022-10-18T15:02:00.958Z,98149.66
2022-10-18T15:04:07.673Z,98148.16
2022-10-18T15:06:18.126Z,98142.19
2022-10-18T15:08:21.673Z,98143.22
2022-10-18T15:10:28.888Z,98150.44
2022-10-18T15:12:40.946Z,98146.91
2022-10-18T15:14:50.893Z,98141.81
2022-10-18T15:17:00.062Z,98150.78
2022-10-18T15:19:05.952Z,98142.19
2022-10-18T15:21:22.943Z,98139.84
2022-10-18T15:23:28.034Z,98140.09
2022-10-18T15:25:33.885Z,98141.06
2022-10-18T15:27:38.801Z,98140.31
2022-10-18T15:29:43.533Z,98135.22
2022-10-18T15:31:49.378Z,98142.38
2022-10-18T15:33:52.616Z,98138.16
2022-10-18T15:35:55.802Z,98134.75
2022-10-18T15:38:00.167Z,98138.41
2022-10-18T15:40:37.619Z,98135.97
2022-10-18T15:42:40.244Z,98135.19
2022-10-18T15:44:49.247Z,98137.16
2022-10-18T15:46:55.727Z,98137.28
2022-10-18T15:49:28.048Z,98140.09
2022-10-18T15:51:48.471Z,98139.53
2022-10-18T15:53:53.638Z,98136.13
2022-10-18T15:56:01.521Z,98139.78
2022-10-18T15:58:04.946Z,98139.03
2022-10-18T16:00:17.336Z,98139.13
2022-10-18T16:02:21.901Z,98141.97
2022-10-18T16:04:26.793Z,98143.84
2022-10-18T16:06:29.912Z,98150.94
2022-10-18T16:08:37.032Z,98144.03
2022-10-18T16:10:39.584Z,98144.97
2022-10-18T16:12:42.352Z,98154.78
2022-10-18T16:14:45.058Z,98146.94
2022-10-18T16:16:49.461Z,98157.44
2022-10-18T16:18:54.501Z,98154.00
2022-10-18T16:20:57.128Z,98150.56
2022-10-18T16:22:59.697Z,98153.31
2022-10-18T16:25:02.264Z,98156.91
2022-10-18T16:27:05.027Z,98154.94
2022-10-18T16:29:12.051Z,98152.66
2022-10-18T16:31:18.224Z,98149.25
2022-10-18T16:33:21.720Z,98156.41
2022-10-18T16:35:26.185Z,98155.66
2022-10-18T16:37:28.753Z,98169.03
2022-10-18T16:39:34.809Z,98166.47
2022-10-18T16:41:37.429Z,98165.72
2022-10-18T16:43:40.367Z,98172.03
2022-10-18T16:45:43.033Z,98172.97
2022-10-18T16:47:46.338Z,98180.16
2022-10-18T16:49:50.087Z,98175.88
2022-10-18T16:51:55.141Z,98182.13
2022-10-18T16:54:00.009Z,98177.84
2022-10-18T16:56:04.020Z,98188.50
2022-10-18T16:58:07.512Z,98185.19
2022-10-18T17:00:17.680Z,98187.91
2022-10-18T17:02:20.306Z,98191.56
2022-10-18T17:04:22.970Z,98186.47
2022-10-18T17:06:28.031Z,98198.91
2022-10-18T17:08:32.456Z,98196.44
2022-10-18T17:10:35.077Z,98209.72
2022-10-18T17:12:37.742Z,98206.22
2022-10-18T17:14:40.363Z,98216.88
2022-10-18T17:16:45.426Z,98214.25
2022-10-18T17:18:50.968Z,98215.19
2022-10-18T17:20:54.997Z,98214.34
2022-10-18T17:22:57.524Z,98214.44
2022-10-18T17:25:01.557Z,98213.56
2022-10-18T17:27:04.290Z,98218.94
2022-10-18T17:29:08.961Z,98216.38
2022-10-18T17:31:11.582Z,98220.88
2022-10-18T17:33:15.179Z,98218.44
2022-10-18T17:35:17.796Z,98220.28
2022-10-18T17:37:20.461Z,98222.16
2022-10-18T17:39:23.105Z,98218.75
2022-10-18T17:41:27.670Z,98223.25
2022-10-18T17:43:30.338Z,98226.84
2022-10-18T17:45:32.909Z,98224.28
2022-10-18T17:47:35.734Z,98221.75
2022-10-18T17:49:38.428Z,98220.09
2022-10-18T17:51:42.752Z,98218.50
2022-10-18T17:53:45.590Z,98223.91
2022-10-18T17:55:48.128Z,98228.47
2022-10-18T17:57:52.604Z,98233.88
2022-10-18T17:59:56.232Z,98235.00
2022-10-18T18:01:58.791Z,98233.34
2022-10-18T18:04:02.883Z,98236.13
2022-10-18T18:06:17.257Z,98243.28
2022-10-18T18:08:19.797Z,98239.00
2022-10-18T18:10:22.430Z,98242.75
2022-10-18T18:12:25.138Z,98234.06
2022-10-18T18:14:29.098Z,98231.69
2022-10-18T18:16:32.772Z,98233.63
2022-10-18T18:18:35.339Z,98238.03
2022-10-18T18:20:37.891Z,98241.06
2022-10-18T18:22:42.691Z,98236.03
2022-10-18T18:24:45.592Z,98234.41
2022-10-18T18:26:48.198Z,98239.16
2022-10-18T18:28:51.055Z,98233.44
2022-10-18T18:30:55.137Z,98231.19
2022-10-18T18:32:57.686Z,98228.63
2022-10-18T18:35:00.282Z,98234.22
2022-10-18T18:37:02.973Z,98234.34
2022-10-18T18:39:06.359Z,98231.09
2022-10-18T18:41:11.275Z,98234.84
2022-10-18T18:43:28.670Z,98233.28
2022-10-18T18:45:31.207Z,98233.44
2022-10-18T18:47:35.676Z,98233.59
2022-10-18T18:49:38.271Z,98231.94
2022-10-18T18:51:41.287Z,98228.53
2022-10-18T18:53:45.560Z,98237.47
2022-10-18T18:55:50.642Z,98241.09
2022-10-18T18:57:53.215Z,98227.34
2022-10-18T18:59:55.839Z,98234.44
2022-10-18T19:01:58.499Z,98231.13
2022-10-18T19:04:03.414Z,98228.63
2022-10-18T19:06:07.789Z,98229.63
2022-10-18T19:08:10.439Z,98230.47
2022-10-18T19:10:13.326Z,98229.00
2022-10-18T19:12:20.535Z,98231.91
2022-10-18T19:14:25.829Z,98230.66
2022-10-18T19:16:30.478Z,98227.22
2022-10-18T19:18:33.521Z,98230.44
2022-10-18T19:20:37.453Z,98225.63
2022-10-18T19:22:40.430Z,98219.78
2022-10-18T19:24:43.089Z,98226.03
2022-10-18T19:26:48.848Z,98222.78
2022-10-18T19:28:51.589Z,98224.66
2022-10-18T19:30:56.032Z,98229.19
2022-10-18T19:33:04.124Z,98225.69
2022-10-18T19:35:07.324Z,98230.66
2022-10-18T19:37:13.124Z,98228.97
2022-10-18T19:39:18.647Z,98224.91
2022-10-18T19:41:21.529Z,98231.31
2022-10-18T19:43:24.335Z,98227.13
2022-10-18T19:45:26.919Z,98230.69
2022-10-18T19:47:29.504Z,98234.25
2022-10-18T19:49:32.231Z,98231.53
2022-10-18T19:51:34.931Z,98232.53
2022-10-18T19:53:39.303Z,98229.88
2022-10-18T19:55:41.885Z,98233.53
2022-10-18T19:57:44.431Z,98230.09
2022-10-18T19:59:47.098Z,98231.03
2022-10-18T20:01:49.711Z,98235.06
2022-10-18T20:03:52.414Z,98241.28
2022-10-18T20:05:56.505Z,98240.78
2022-10-18T20:07:59.128Z,98241.84
2022-10-18T20:10:03.275Z,98235.94
2022-10-18T20:12:06.305Z,98235.13
2022-10-18T20:14:09.571Z,98233.44
2022-10-18T20:16:14.420Z,98228.25
2022-10-18T20:18:18.418Z,98232.66
2022-10-18T20:20:21.074Z,98232.66
2022-10-18T20:22:23.927Z,98236.19
2022-10-18T20:24:26.655Z,98229.94
2022-10-18T20:26:30.702Z,98243.19
2022-10-18T20:28:33.893Z,98241.44
2022-10-18T20:30:36.677Z,98239.75
2022-10-18T20:32:39.255Z,98245.09
2022-10-18T20:34:41.893Z,98242.38
2022-10-18T20:36:44.539Z,98242.47
2022-10-18T20:38:48.497Z,98238.19
2022-10-18T20:40:51.189Z,98239.09
2022-10-18T20:42:55.219Z,98244.28
2022-10-18T20:44:58.003Z,98238.88
2022-10-18T20:47:00.692Z,98225.66
2022-10-18T20:49:03.997Z,98235.34
2022-10-18T20:51:08.183Z,98237.13
2022-10-18T20:53:10.717Z,98237.19
2022-10-18T20:55:13.389Z,98230.03
2022-10-18T20:57:15.989Z,98235.13
2022-10-18T20:59:19.895Z,98237.78
2022-10-18T21:01:24.608Z,98235.06
2022-10-18T21:03:27.219Z,98232.44
2022-10-18T21:05:30.044Z,98232.44
2022-10-18T21:07:32.831Z,98228.19
2022-10-18T21:09:35.584Z,98237.84
2022-10-18T21:11:39.651Z,98231.72
2022-10-18T21:13:42.315Z,98230.81
2022-10-18T21:15:54.813Z,98223.75
2022-10-18T21:17:57.736Z,98228.03
2022-10-18T21:20:00.956Z,98217.50
2022-10-18T21:22:03.571Z,98219.28
2022-10-18T21:24:07.890Z,98225.56
2022-10-18T21:26:15.075Z,98227.31
2022-10-18T21:28:18.173Z,98218.56
2022-10-18T21:30:20.790Z,98212.31
2022-10-18T21:32:24.836Z,98215.81
2022-10-18T21:34:27.498Z,98207.22
2022-10-18T21:36:32.355Z,98208.91
2022-10-18T21:38:35.028Z,98205.94
2022-10-18T21:40:39.665Z,98203.56
2022-10-18T21:42:42.268Z,98203.94
2022-10-18T21:44:44.976Z,98197.53
2022-10-18T21:46:47.696Z,98201.31
2022-10-18T21:48:53.133Z,98195.28
2022-10-18T21:50:56.003Z,98198.84
2022-10-18T21:52:58.591Z,98193.66
2022-10-18T21:55:01.395Z,98191.22
2022-10-18T21:57:04.083Z,98192.13
2022-10-18T21:59:06.759Z,98187.97
2022-10-18T22:01:09.863Z,98188.69
2022-10-18T22:03:14.641Z,98184.66
2022-10-18T22:05:19.045Z,98179.53
2022-10-18T22:07:21.778Z,98178.72
2022-10-18T22:09:24.421Z,98179.69
2022-10-18T22:11:29.950Z,98176.25
2022-10-18T22:13:32.891Z,98171.16
2022-10-18T22:17:43.041Z,98178.25
2022-10-18T22:19:47.253Z,98181.88
2022-10-18T22:21:51.339Z,98175.84
2022-10-18T22:23:56.913Z,98174.19
2022-10-18T22:26:03.555Z,98169.84
2022-10-18T22:28:06.431Z,98166.38
2022-10-18T22:30:10.035Z,98167.56
2022-10-18T22:32:12.687Z,98169.53
2022-10-18T22:34:17.993Z,98160.91
2022-10-18T22:36:20.638Z,98171.66
2022-10-18T22:38:24.668Z,98162.09
2022-10-18T22:40:27.262Z,98164.88
2022-10-18T22:42:29.933Z,98165.81
2022-10-18T22:44:34.011Z,98165.84
2022-10-18T22:46:36.767Z,98146.69
2022-10-18T22:48:40.128Z,98159.22
2022-10-18T22:50:42.712Z,98154.97
2022-10-18T22:52:45.375Z,98153.28
2022-10-18T22:54:52.195Z,98154.38
2022-10-18T22:56:54.872Z,98155.41
2022-10-18T22:58:57.481Z,98155.47
2022-10-18T23:01:04.883Z,98156.34
2022-10-18T23:03:07.497Z,98154.69
2022-10-18T23:05:10.291Z,98160.00
2022-10-18T23:07:12.953Z,98158.28
2022-10-18T23:09:15.613Z,98149.72
2022-10-18T23:11:20.287Z,98147.31
2022-10-18T23:13:23.359Z,98152.56
2022-10-18T23:15:25.977Z,98150.31
2022-10-18T23:17:28.610Z,98152.56
2022-10-18T23:19:31.205Z,98154.50
2022-10-18T23:21:35.101Z,98145.97
2022-10-18T23:23:40.107Z,98152.13
2022-10-18T23:25:42.678Z,98147.75
2022-10-18T23:27:46.651Z,98147.81
2022-10-18T23:29:49.304Z,98150.44
2022-10-18T23:31:52.461Z,98153.09
2022-10-18T23:33:57.727Z,98152.19
2022-10-18T23:36:00.778Z,98154.88
2022-10-18T23:38:03.395Z,98154.88
2022-10-18T23:40:06.973Z,98151.59
2022-10-18T23:42:09.557Z,98153.41
2022-10-18T23:44:13.528Z,98162.19
2022-10-18T23:46:18.026Z,98147.75
2022-10-18T23:48:20.669Z,98159.75
2022-10-18T23:50:23.233Z,98154.03
2022-10-18T23:52:25.943Z,98159.75
2022-10-18T23:54:29.547Z,98159.88
2022-10-18T23:56:32.171Z,98161.72
2022-10-18T23:58:36.537Z,98156.59
